Time;durP1;ratioP1;P1;durP2;ratioP2;P2;SDS_P1;SDS_P2;PMS_P1;PMS_P2;Temp;Humidity;BMP_temperature;BMP_pressure;BME280_temperature;BME280_humidity;BME280_pressure;Samples;Min_cycle;Max_cycle;Signal;HPM_P1;HPM_P2
2022/12/08 00:00:35;;;;;;;;;;;;;;;18.05;59.29;100202.63;2238069;79;50464;-74
2022/12/08 00:03:37;;;;;;;;;;;;;;;18.08;59.38;100201.94;2237515;79;50054;-73
2022/12/08 00:10:02;;;;;;;;;;;;;;;18.23;59.21;100194.67;2249907;78;22323;-73
2022/12/08 00:13:04;;;;;;;;;;;;;;;18.32;59.01;100191.38;2249434;79;50369;-73
2022/12/08 00:16:05;;;;;;;;;;;;;;;18.30;59.02;100187.53;2237745;79;51637;-73
2022/12/08 00:19:07;;;;;;;;;;;;;;;18.31;58.98;100189.70;2237517;79;50259;-73
2022/12/08 00:22:09;;;;;;;;;;;;;;;18.28;58.98;100191.73;2249469;79;50621;-74
2022/12/08 00:25:10;;;;;;;;;;;;;;;18.26;59.00;100185.77;2249293;79;52289;-74
2022/12/08 00:28:12;;;;;;;;;;;;;;;18.22;59.08;100192.51;2237879;79;50394;-73
2022/12/08 00:31:13;;;;;;;;;;;;;;;18.18;59.09;100189.06;2249628;78;50613;-73
2022/12/08 00:34:15;;;;;;;;;;;;;;;18.14;59.15;100186.47;2238591;79;50713;-73
2022/12/08 00:37:17;;;;;;;;;;;;;;;18.08;59.25;100187.21;2249789;79;50610;-73
2022/12/08 00:40:18;;;;;;;;;;;;;;;18.03;59.42;100183.77;2238510;79;50098;-73
2022/12/08 00:43:20;;;;;;;;;;;;;;;18.04;59.57;100174.21;2249527;79;51448;-73
2022/12/08 00:46:21;;;;;;;;;;;;;;;18.13;59.45;100175.42;2238976;79;51534;-73
2022/12/08 00:49:23;;;;;;;;;;;;;;;18.23;59.27;100174.07;2238926;79;51443;-73
2022/12/08 00:52:24;;;;;;;;;;;;;;;18.27;59.03;100170.00;2237828;79;49683;-73
2022/12/08 00:55:26;;;;;;;;;;;;;;;18.28;59.02;100162.78;2238109;79;50263;-73
2022/12/08 00:58:28;;;;;;;;;;;;;;;18.26;59.09;100170.18;2249822;79;50384;-72
2022/12/08 01:01:29;;;;;;;;;;;;;;;18.25;59.04;100171.21;2238449;79;50482;-73
2022/12/08 01:04:31;;;;;;;;;;;;;;;18.23;59.03;100159.86;2214433;79;52489;-73
2022/12/08 01:07:32;;;;;;;;;;;;;;;18.20;59.02;100157.57;2249853;79;51524;-73
2022/12/08 01:10:35;;;;;;;;;;;;;;;18.16;59.07;100161.64;2249779;77;51441;-73
2022/12/08 01:13:36;;;;;;;;;;;;;;;18.12;59.09;100165.73;2249581;78;50302;-73
2022/12/08 01:16:40;;;;;;;;;;;;;;;18.06;59.30;100163.33;2249985;78;50411;-73
2022/12/08 01:19:41;;;;;;;;;;;;;;;18.00;59.57;100165.41;2239675;78;24751;-74
2022/12/08 01:22:43;;;;;;;;;;;;;;;18.02;59.64;100168.22;2239413;79;51511;-73
2022/12/08 01:25:44;;;;;;;;;;;;;;;18.11;59.56;100165.41;2249750;79;51561;-73
2022/12/08 01:28:46;;;;;;;;;;;;;;;18.18;59.35;100152.91;2238510;79;51401;-74
2022/12/08 01:31:47;;;;;;;;;;;;;;;18.25;59.10;100157.82;2238157;77;51388;-73
2022/12/08 01:34:49;;;;;;;;;;;;;;;18.27;58.98;100148.58;2249643;77;51466;-73
2022/12/08 01:37:51;;;;;;;;;;;;;;;18.26;58.92;100154.97;2238272;79;50201;-73
2022/12/08 01:40:52;;;;;;;;;;;;;;;18.26;58.88;100148.27;2249847;79;50463;-73
2022/12/08 01:43:55;;;;;;;;;;;;;;;18.23;58.89;100139.77;2238613;79;50612;-73
2022/12/08 01:46:56;;;;;;;;;;;;;;;18.18;59.02;100139.01;2238553;78;51614;-73
2022/12/08 01:49:58;;;;;;;;;;;;;;;18.15;59.10;100135.90;2249751;79;51524;-73
2022/12/08 01:53:01;;;;;;;;;;;;;;;18.13;59.06;100140.61;2238553;79;52341;-74
2022/12/08 01:56:04;;;;;;;;;;;;;;;18.04;59.19;100134.05;2287133;77;50760;-74
2022/12/08 01:59:06;;;;;;;;;;;;;;;17.99;59.39;100120.94;2310203;76;50756;-73
2022/12/08 02:02:08;;;;;;;;;;;;;;;17.98;59.59;100115.24;2312819;77;51395;-73
2022/12/08 02:05:10;;;;;;;;;;;;;;;18.03;59.58;100112.33;2242877;78;49606;-73
2022/12/08 02:08:12;;;;;;;;;;;;;;;18.13;59.43;100113.84;2266578;78;50453;-73
2022/12/08 02:11:13;;;;;;;;;;;;;;;18.23;59.22;100111.66;2266529;78;50680;-73
2022/12/08 02:14:15;;;;;;;;;;;;;;;18.24;59.09;100108.80;2266331;78;50393;-74
2022/12/08 02:17:24;;;;;;;;;;;;;;;18.23;59.09;100099.61;2242933;78;50272;-73
2022/12/08 02:20:27;;;;;;;;;;;;;;;18.21;59.06;100097.14;2266189;78;50666;-74
2022/12/08 02:23:47;;;;;;;;;;;;;;;18.21;59.08;100098.48;2258605;77;50321;-74
2022/12/08 02:27:09;;;;;;;;;;;;;;;18.19;59.11;100099.17;2266545;78;50261;-74
2022/12/08 02:30:12;;;;;;;;;;;;;;;18.16;59.11;100083.98;2266635;78;51562;-74
2022/12/08 02:33:32;;;;;;;;;;;;;;;18.13;59.11;100084.38;2266482;78;51515;-74
2022/12/08 02:36:52;;;;;;;;;;;;;;;18.04;59.19;100088.55;2266523;78;50344;-74
2022/12/08 02:39:55;;;;;;;;;;;;;;;17.95;59.56;100089.69;2266535;78;50349;-74
2022/12/08 02:43:03;;;;;;;;;;;;;;;17.96;59.70;100080.66;2266476;77;50266;-74
2022/12/08 02:46:05;;;;;;;;;;;;;;;18.02;59.66;100077.20;2241743;78;50183;-74
2022/12/08 02:49:07;;;;;;;;;;;;;;;18.10;59.53;100073.55;2266562;77;50251;-74
2022/12/08 02:52:13;;;;;;;;;;;;;;;18.20;59.39;100075.90;2266502;78;50249;-74
2022/12/08 02:55:27;;;;;;;;;;;;;;;18.23;59.22;100070.15;2266243;77;51600;-74
2022/12/08 02:58:37;;;;;;;;;;;;;;;18.23;59.25;100056.76;2243180;78;51743;-74
2022/12/08 03:01:40;;;;;;;;;;;;;;;18.22;59.21;100052.44;2274185;78;52283;-74
2022/12/08 03:04:46;;;;;;;;;;;;;;;18.20;59.16;100047.78;2312696;77;51455;-74
2022/12/08 03:07:55;;;;;;;;;;;;;;;18.18;59.12;100041.79;2312941;77;50372;-74
2022/12/08 03:11:04;;;;;;;;;;;;;;;18.15;59.14;100039.51;2288503;77;52379;-74
2022/12/08 03:14:06;;;;;;;;;;;;;;;18.09;59.18;100046.48;2312584;76;50751;-74
2022/12/08 03:17:07;;;;;;;;;;;;;;;18.03;59.25;100036.52;2312914;77;51598;-74
2022/12/08 03:20:10;;;;;;;;;;;;;;;17.97;59.40;100027.42;2312760;77;51424;-75
2022/12/08 03:23:13;;;;;;;;;;;;;;;17.98;59.47;100025.08;2288731;77;51252;-74
2022/12/08 03:26:22;;;;;;;;;;;;;;;18.02;59.48;100022.83;2312654;77;50863;-74
2022/12/08 03:29:23;;;;;;;;;;;;;;;18.10;59.41;100028.03;2274827;78;50289;-74
2022/12/08 03:32:34;;;;;;;;;;;;;;;18.19;59.18;100022.86;2274908;77;50424;-74
2022/12/08 03:35:36;;;;;;;;;;;;;;;18.25;59.00;100023.92;2270348;77;51800;-74
2022/12/08 03:38:38;;;;;;;;;;;;;;;18.25;58.94;100025.27;2275066;78;50513;-74
2022/12/08 03:41:40;;;;;;;;;;;;;;;18.23;58.89;100013.91;2271358;78;51502;-74
2022/12/08 03:44:41;;;;;;;;;;;;;;;18.21;58.92;100011.94;2275767;78;50674;-74
2022/12/08 03:47:43;;;;;;;;;;;;;;;18.17;58.96;100008.84;2271647;78;49565;-74
2022/12/08 03:50:45;;;;;;;;;;;;;;;18.14;59.03;100000.37;2271165;78;50225;-74
2022/12/08 03:53:46;;;;;;;;;;;;;;;18.09;59.08;99999.63;2270568;78;50777;-74
2022/12/08 03:56:48;;;;;;;;;;;;;;;18.04;59.11;99992.17;2275341;78;50682;-73
2022/12/08 03:59:49;;;;;;;;;;;;;;;17.97;59.30;99992.63;2276788;78;50389;-74
2022/12/08 04:02:51;;;;;;;;;;;;;;;17.98;59.40;99986.75;2275070;77;50784;-73
2022/12/08 04:05:53;;;;;;;;;;;;;;;18.01;59.45;99987.21;2270815;78;50709;-70
2022/12/08 04:08:54;;;;;;;;;;;;;;;18.08;59.37;99983.73;2275399;78;50371;-74
2022/12/08 04:11:56;;;;;;;;;;;;;;;18.16;59.29;99983.58;2252087;77;49581;-73
2022/12/08 04:14:57;;;;;;;;;;;;;;;18.22;59.10;99976.94;2312407;76;50682;-73
2022/12/08 04:17:59;;;;;;;;;;;;;;;18.22;59.06;99970.77;2312660;77;51606;-73
2022/12/08 04:21:00;;;;;;;;;;;;;;;18.22;59.07;99961.39;2313616;77;51439;-73
2022/12/08 04:24:02;;;;;;;;;;;;;;;18.18;59.04;99960.94;2312492;77;50889;-74
2022/12/08 04:27:04;;;;;;;;;;;;;;;18.16;59.07;99956.32;2313641;76;50372;-74
2022/12/08 04:30:06;;;;;;;;;;;;;;;18.11;59.13;99961.44;2312774;77;50298;-74
2022/12/08 04:33:08;;;;;;;;;;;;;;;18.09;59.23;99962.66;2312622;76;50454;-74
2022/12/08 04:36:09;;;;;;;;;;;;;;;18.04;59.29;99957.38;2287348;77;50895;-74
2022/12/08 04:39:11;;;;;;;;;;;;;;;17.99;59.40;99957.13;2313641;77;51512;-74
2022/12/08 04:42:12;;;;;;;;;;;;;;;17.95;59.56;99957.19;2312750;77;51530;-73
2022/12/08 04:45:14;;;;;;;;;;;;;;;17.96;59.69;99954.03;2313526;76;51528;-73
2022/12/08 04:48:16;;;;;;;;;;;;;;;18.03;59.67;99953.05;2288636;77;52634;-74
2022/12/08 04:51:17;;;;;;;;;;;;;;;18.11;59.48;99956.08;2312817;76;50316;-74
2022/12/08 04:54:19;;;;;;;;;;;;;;;18.18;59.28;99956.92;2312548;77;50380;-75
2022/12/08 04:57:21;;;;;;;;;;;;;;;18.21;59.15;99950.35;2312668;77;50312;-74
2022/12/08 05:00:22;;;;;;;;;;;;;;;18.21;59.09;99959.72;2287595;76;51125;-73
2022/12/08 05:03:24;;;;;;;;;;;;;;;18.19;59.08;99941.71;2313450;76;50403;-74
2022/12/08 05:06:25;;;;;;;;;;;;;;;18.16;59.33;99949.63;2312703;77;50317;-74
2022/12/08 05:09:27;;;;;;;;;;;;;;;18.13;59.44;99946.50;2313692;76;50079;-74
2022/12/08 05:12:28;;;;;;;;;;;;;;;18.09;59.38;99946.59;2288875;77;51179;-74
2022/12/08 05:15:30;;;;;;;;;;;;;;;18.06;59.41;99949.16;2312661;77;50642;-74
2022/12/08 05:18:32;;;;;;;;;;;;;;;18.00;59.49;99944.05;2312720;77;51432;-74
2022/12/08 05:21:33;;;;;;;;;;;;;;;17.95;59.72;99947.83;2312762;77;51403;-73
2022/12/08 05:24:35;;;;;;;;;;;;;;;17.95;59.83;99942.47;2288380;77;51660;-73
2022/12/08 05:27:36;;;;;;;;;;;;;;;17.99;59.93;99941.07;2313815;77;50755;-72
2022/12/08 05:30:38;;;;;;;;;;;;;;;18.09;59.88;99939.91;2314303;77;50253;-72
2022/12/08 05:33:40;;;;;;;;;;;;;;;18.15;59.80;99939.10;2314040;77;50728;-72
2022/12/08 05:36:41;;;;;;;;;;;;;;;18.19;59.63;99941.20;2289033;77;51876;-71
2022/12/08 05:39:43;;;;;;;;;;;;;;;18.20;59.40;99939.34;2314316;76;51421;-69
2022/12/08 05:42:44;;;;;;;;;;;;;;;18.21;59.21;99941.83;2314213;77;51511;-71
2022/12/08 05:45:46;;;;;;;;;;;;;;;18.17;59.08;99933.05;2312893;77;51459;-70
2022/12/08 05:48:47;;;;;;;;;;;;;;;18.17;58.97;99931.70;2288897;77;52653;-71
2022/12/08 05:51:49;;;;;;;;;;;;;;;18.14;58.95;99932.11;2314047;77;51432;-69
2022/12/08 05:54:51;;;;;;;;;;;;;;;18.06;59.12;99928.55;2314064;77;51855;-68
2022/12/08 05:57:52;;;;;;;;;;;;;;;18.01;59.31;99924.31;2313962;77;50380;-69
2022/12/08 06:00:54;;;;;;;;;;;;;;;17.96;59.45;99922.73;2289239;77;51088;-69
2022/12/08 06:03:57;;;;;;;;;;;;;;;17.92;59.58;99923.31;2313220;77;50793;-69
2022/12/08 06:06:58;;;;;;;;;;;;;;;17.96;59.52;99926.75;2313469;77;50756;-69
2022/12/08 06:10:00;;;;;;;;;;;;;;;18.03;59.29;99920.08;2313678;77;51645;-70
2022/12/08 06:13:02;;;;;;;;;;;;;;;18.14;59.00;99929.42;2288162;77;52468;-69
2022/12/08 06:16:04;;;;;;;;;;;;;;;18.15;58.86;99923.03;2314158;76;51465;-69
2022/12/08 06:19:06;;;;;;;;;;;;;;;18.15;58.72;99918.50;2314241;76;51544;-69
2022/12/08 06:22:07;;;;;;;;;;;;;;;18.15;58.66;99920.36;2313417;77;51505;-69
2022/12/08 06:25:09;;;;;;;;;;;;;;;18.13;58.61;99923.73;2314115;77;51477;-70
2022/12/08 06:28:11;;;;;;;;;;;;;;;18.10;58.62;99921.47;2314241;76;49895;-69
2022/12/08 06:31:16;;;;;;;;;;;;;;;18.05;58.66;99924.20;2313481;77;50367;-69
2022/12/08 06:34:18;;;;;;;;;;;;;;;18.00;58.75;99923.97;2313218;76;51496;-70
2022/12/08 06:37:20;;;;;;;;;;;;;;;17.95;58.94;99927.75;2289210;77;51947;-72
2022/12/08 06:40:21;;;;;;;;;;;;;;;17.89;59.12;99929.88;2314376;76;50770;-68
2022/12/08 06:43:23;;;;;;;;;;;;;;;17.87;59.03;99925.23;2313239;77;51560;-68
2022/12/08 06:46:24;;;;;;;;;;;;;;;17.92;58.92;99928.15;2313293;77;51624;-70
2022/12/08 06:49:26;;;;;;;;;;;;;;;18.01;58.67;99920.30;2287973;77;52542;-70
2022/12/08 06:52:27;;;;;;;;;;;;;;;18.11;58.50;99927.97;2314295;76;51519;-67
2022/12/08 06:55:29;;;;;;;;;;;;;;;18.13;58.48;99922.40;2313222;77;50726;-72
2022/12/08 06:58:31;;;;;;;;;;;;;;;18.13;58.69;99927.23;2313296;77;50392;-70
2022/12/08 07:01:32;;;;;;;;;;;;;;;18.12;58.63;99930.95;2313314;77;50404;-70
2022/12/08 07:04:34;;;;;;;;;;;;;;;18.12;58.60;99932.81;2313157;76;50392;-71
2022/12/08 07:07:35;;;;;;;;;;;;;;;18.11;58.51;99941.36;2288509;77;51093;-67
2022/12/08 07:10:37;;;;;;;;;;;;;;;18.09;58.28;99935.89;2312661;77;50681;-68
2022/12/08 07:13:39;;;;;;;;;;;;;;;18.01;58.37;99943.56;2288328;77;52630;-71
2022/12/08 07:16:40;;;;;;;;;;;;;;;17.92;58.67;99941.53;2313644;77;50371;-71
2022/12/08 07:19:42;;;;;;;;;;;;;;;17.87;58.84;99949.32;2313558;76;50800;-70
2022/12/08 07:22:48;;;;;;;;;;;;;;;17.89;58.79;99937.09;2313770;77;50827;-70
2022/12/08 07:25:50;;;;;;;;;;;;;;;17.93;58.71;99944.55;2288078;77;52510;-70
2022/12/08 07:28:52;;;;;;;;;;;;;;;18.01;58.45;99941.70;2313913;77;51603;-70
2022/12/08 07:31:53;;;;;;;;;;;;;;;18.10;58.22;99941.03;2312782;77;52525;-69
2022/12/08 07:34:55;;;;;;;;;;;;;;;18.13;58.06;99944.64;2313467;76;51509;-68
2022/12/08 07:37:56;;;;;;;;;;;;;;;18.13;57.99;99948.66;2295934;77;50452;-69
2022/12/08 07:40:58;;;;;;;;;;;;;;;18.14;57.95;99941.48;2313385;76;50078;-71
2022/12/08 07:43:59;;;;;;;;;;;;;;;18.13;57.90;99943.82;2280237;77;50261;-71
2022/12/08 07:47:01;;;;;;;;;;;;;;;18.12;57.87;99943.52;2253129;77;50116;-71
2022/12/08 07:50:03;;;;;;;;;;;;;;;18.08;57.88;99939.56;2253244;78;51606;-71
2022/12/08 07:53:04;;;;;;;;;;;;;;;18.03;57.99;99941.48;2253188;78;50360;-72
2022/12/08 07:56:06;;;;;;;;;;;;;;;17.93;58.25;99940.53;2309168;77;51535;-71
2022/12/08 07:59:08;;;;;;;;;;;;;;;17.86;58.50;99940.98;2313154;77;51543;-71
2022/12/08 08:02:14;;;;;;;;;;;;;;;17.84;58.51;99942.50;2287921;77;52562;-71
2022/12/08 08:05:16;;;;;;;;;;;;;;;17.89;58.38;99943.27;2312472;77;51583;-70
2022/12/08 08:08:17;;;;;;;;;;;;;;;17.96;58.19;99943.33;2313304;77;51475;-71
2022/12/08 08:11:19;;;;;;;;;;;;;;;18.05;57.97;99944.28;2313139;76;50704;-71
2022/12/08 08:14:20;;;;;;;;;;;;;;;18.12;57.80;99947.53;2288730;77;51084;-70
2022/12/08 08:17:22;;;;;;;;;;;;;;;18.14;57.66;99944.16;2311954;77;50352;-70
2022/12/08 08:20:24;;;;;;;;;;;;;;;18.14;57.63;99953.52;2297787;77;50257;-72
2022/12/08 08:23:25;;;;;;;;;;;;;;;18.12;57.61;99955.56;2312466;77;50391;-70
2022/12/08 08:26:27;;;;;;;;;;;;;;;18.10;57.70;99956.27;2288575;76;49599;-70
2022/12/08 08:29:28;;;;;;;;;;;;;;;18.08;57.74;99956.97;2312747;77;50243;-70
2022/12/08 08:32:33;;;;;;;;;;;;;;;18.10;57.64;99961.10;2313317;77;50656;-70
2022/12/08 08:35:35;;;;;;;;;;;;;;;18.11;57.63;99952.06;2312399;76;51531;-70
2022/12/08 08:38:42;;;;;;;;;;;;;;;18.02;57.88;99952.72;2288447;77;51046;-70
2022/12/08 08:41:40;;;;;;;;;;;;;;;17.95;58.06;99945.14;2311728;77;22365;-71
2022/12/08 08:44:41;;;;;;;;;;;;;;;17.98;58.12;99951.47;2312369;77;50837;-70
2022/12/08 08:47:43;;;;;;;;;;;;;;;18.09;57.94;99947.94;2313532;76;51520;-70
2022/12/08 08:50:45;;;;;;;;;;;;;;;18.17;57.74;99954.46;2288605;77;52884;-71
2022/12/08 08:53:46;;;;;;;;;;;;;;;18.23;57.64;99951.80;2312459;77;51483;-71
2022/12/08 08:56:48;;;;;;;;;;;;;;;18.29;57.52;99951.55;2312814;77;51457;-70
2022/12/08 08:59:49;;;;;;;;;;;;;;;18.30;57.39;99954.53;2312599;76;51552;-71
2022/12/08 09:02:51;;;;;;;;;;;;;;;18.27;57.44;99958.95;2312713;76;51409;-71
2022/12/08 09:05:54;;;;;;;;;;;;;;;18.27;57.41;99953.59;2312505;76;50270;-70
2022/12/08 09:08:55;;;;;;;;;;;;;;;18.22;57.47;99948.83;2304273;77;51605;-71
2022/12/08 09:11:57;;;;;;;;;;;;;;;18.21;57.45;99942.31;2296333;76;50709;-71
2022/12/08 09:14:58;;;;;;;;;;;;;;;18.19;57.45;99940.37;2258845;76;51572;-71
2022/12/08 09:18:00;;;;;;;;;;;;;;;18.15;57.50;99928.39;2283579;76;51501;-69
2022/12/08 09:21:06;;;;;;;;;;;;;;;18.11;57.61;99932.48;2312723;76;50535;-70
2022/12/08 09:24:14;;;;;;;;;;;;;;;18.04;57.87;99932.45;2280162;78;50082;-67
2022/12/08 09:27:10;;;;;;;;;;;;;;;18.06;57.87;99920.52;2285514;77;22406;-68
2022/12/08 09:30:13;;;;;;;;;;;;;;;18.17;57.70;99927.17;2292859;77;50737;-68
2022/12/08 09:33:15;;;;;;;;;;;;;;;18.26;57.51;99927.82;2314126;76;51605;-69
2022/12/08 09:36:16;;;;;;;;;;;;;;;18.31;57.39;99928.05;2314680;76;51902;-70
2022/12/08 09:39:18;;;;;;;;;;;;;;;18.34;57.24;99918.31;2289475;77;51381;-68
2022/12/08 09:42:21;;;;;;;;;;;;;;;18.37;57.12;99911.69;2297602;77;50407;-69
2022/12/08 09:45:23;;;;;;;;;;;;;;;18.31;57.23;99914.66;2310335;77;50620;-70
2022/12/08 09:48:31;;;;;;;;;;;;;;;18.27;57.30;99924.14;2308550;76;50224;-69
2022/12/08 09:51:35;;;;;;;;;;;;;;;18.23;57.33;99911.64;2283508;77;51354;-69
2022/12/08 09:54:36;;;;;;;;;;;;;;;18.20;57.35;99914.72;2254145;78;50832;-69
2022/12/08 09:57:38;;;;;;;;;;;;;;;18.20;57.36;99912.56;2238472;79;50720;-69
2022/12/08 10:00:39;;;;;;;;;;;;;;;18.17;57.41;99906.27;2277158;78;51894;-72
2022/12/08 10:03:41;;;;;;;;;;;;;;;18.08;57.73;99907.44;2255413;78;51683;-73
2022/12/08 10:06:50;;;;;;;;;;;;;;;18.01;58.06;99903.41;2279384;78;50552;-72
2022/12/08 10:09:59;;;;;;;;;;;;;;;18.11;58.00;99903.88;2279558;77;50392;-72
2022/12/08 10:13:08;;;;;;;;;;;;;;;18.22;57.73;99911.34;2279492;77;50773;-72
2022/12/08 10:16:14;;;;;;;;;;;;;;;18.31;57.55;99901.27;2278970;78;51071;-72
2022/12/08 10:19:18;;;;;;;;;;;;;;;18.36;57.41;99902.84;2279602;78;51631;-72
2022/12/08 10:22:23;;;;;;;;;;;;;;;18.37;57.29;99905.00;2279679;78;51525;-73
2022/12/08 10:25:26;;;;;;;;;;;;;;;18.33;57.36;99901.91;2279468;77;50400;-72
2022/12/08 10:28:28;;;;;;;;;;;;;;;18.30;57.42;99908.19;2255353;78;51287;-71
2022/12/08 10:31:30;;;;;;;;;;;;;;;18.25;57.46;99908.26;2278789;77;50056;-72
2022/12/08 10:34:31;;;;;;;;;;;;;;;18.20;57.55;99899.99;2278950;77;50397;-72
2022/12/08 10:37:33;;;;;;;;;;;;;;;18.17;57.56;99884.85;2278811;77;50298;-72
2022/12/08 10:40:35;;;;;;;;;;;;;;;18.15;57.59;99890.39;2278650;77;51098;-72
2022/12/08 10:43:41;;;;;;;;;;;;;;;18.10;57.77;99883.47;2278607;77;50831;-72
2022/12/08 10:46:43;;;;;;;;;;;;;;;18.08;57.91;99876.66;2279106;77;51508;-72
2022/12/08 10:49:44;;;;;;;;;;;;;;;18.18;57.74;99883.30;2279096;78;51299;-72
2022/12/08 10:52:47;;;;;;;;;;;;;;;18.28;57.55;99874.89;2253634;77;51441;-72
2022/12/08 10:55:51;;;;;;;;;;;;;;;18.34;57.42;99874.11;2278921;77;50311;-72
2022/12/08 10:58:54;;;;;;;;;;;;;;;18.39;57.30;99881.00;2279051;77;50777;-72
2022/12/08 11:01:56;;;;;;;;;;;;;;;18.42;57.11;99878.44;2279327;78;52476;-72
2022/12/08 11:05:00;;;;;;;;;;;;;;;18.37;57.16;99873.71;2279285;77;52320;-72
2022/12/08 11:08:02;;;;;;;;;;;;;;;18.34;57.25;99866.56;2281564;78;50681;-71
2022/12/08 11:11:03;;;;;;;;;;;;;;;18.31;57.28;99873.67;2262535;78;50698;-72
2022/12/08 11:14:08;;;;;;;;;;;;;;;18.25;57.33;99878.80;2282852;77;50780;-72
2022/12/08 11:17:14;;;;;;;;;;;;;;;18.22;57.38;99870.35;2244049;78;51788;-72
2022/12/08 11:20:20;;;;;;;;;;;;;;;18.18;57.46;99866.41;2280776;77;50777;-71
2022/12/08 11:23:22;;;;;;;;;;;;;;;18.15;57.47;99863.62;2265452;77;50886;-71
2022/12/08 11:26:25;;;;;;;;;;;;;;;18.13;57.64;99861.64;2231568;79;51504;-71
2022/12/08 11:29:27;;;;;;;;;;;;;;;18.19;57.55;99856.84;2219646;79;52725;-71
2022/12/08 11:32:29;;;;;;;;;;;;;;;18.26;57.41;99856.86;2242813;79;50674;-71
2022/12/08 11:35:32;;;;;;;;;;;;;;;18.32;57.29;99853.91;2248611;78;50764;-71
2022/12/08 11:38:34;;;;;;;;;;;;;;;18.38;57.18;99846.41;2242928;79;51616;-71
2022/12/08 11:41:37;;;;;;;;;;;;;;;18.44;57.04;99850.95;2231115;79;49841;-71
2022/12/08 11:44:40;;;;;;;;;;;;;;;18.49;56.87;99850.64;2241702;79;50288;-72
2022/12/08 11:47:43;;;;;;;;;;;;;;;18.47;56.80;99848.70;2241879;79;51516;-71
2022/12/08 11:50:49;;;;;;;;;;;;;;;18.45;56.83;99848.59;2241748;79;50310;-71
2022/12/08 11:54:09;;;;;;;;;;;;;;;18.40;56.92;99849.72;2207171;79;51055;-72
2022/12/08 11:57:14;;;;;;;;;;;;;;;18.35;56.99;99861.02;2241715;79;50706;-72
2022/12/08 12:00:15;;;;;;;;;;;;;;;18.28;57.12;99851.61;2242950;79;22414;-72
2022/12/08 12:03:21;;;;;;;;;;;;;;;18.27;57.15;99858.53;2241540;79;51535;-72
2022/12/08 12:06:28;;;;;;;;;;;;;;;18.22;57.20;99854.28;2218889;79;52771;-71
2022/12/08 12:09:40;;;;;;;;;;;;;;;18.17;57.31;99852.20;2241547;79;50785;-72
2022/12/08 12:12:43;;;;;;;;;;;;;;;18.22;57.30;99858.30;2261683;77;51627;-72
2022/12/08 12:16:03;;;;;;;;;;;;;;;18.31;57.19;99862.44;2265957;78;52046;-72
2022/12/08 12:19:05;;;;;;;;;;;;;;;18.39;57.00;99852.88;2243133;78;51198;-72
2022/12/08 12:22:15;;;;;;;;;;;;;;;18.47;56.82;99858.09;2265817;78;51511;-72
2022/12/08 12:25:17;;;;;;;;;;;;;;;18.53;56.59;99852.95;2278875;78;50391;-72
2022/12/08 12:28:19;;;;;;;;;;;;;;;18.52;56.57;99855.30;2279005;78;51473;-72
2022/12/08 12:31:25;;;;;;;;;;;;;;;18.45;56.62;99856.11;2255544;78;51664;-71
2022/12/08 12:34:28;;;;;;;;;;;;;;;18.41;56.67;99853.52;2282892;77;51510;-73
2022/12/08 12:37:36;;;;;;;;;;;;;;;18.37;56.75;99860.31;2285127;77;51540;-72
2022/12/08 12:40:39;;;;;;;;;;;;;;;18.32;56.88;99857.41;2278986;77;50407;-73
2022/12/08 12:43:41;;;;;;;;;;;;;;;18.31;56.97;99865.12;2277516;77;52519;-71
2022/12/08 12:46:47;;;;;;;;;;;;;;;18.24;57.12;99853.06;2253623;78;51435;-71
2022/12/08 12:49:49;;;;;;;;;;;;;;;18.19;57.30;99850.67;2280097;77;50589;-72
2022/12/08 12:52:52;;;;;;;;;;;;;;;18.24;57.28;99851.72;2274564;77;50260;-71
2022/12/08 12:55:57;;;;;;;;;;;;;;;18.29;57.29;99847.11;2254406;78;52669;-72
2022/12/08 12:58:58;;;;;;;;;;;;;;;18.38;57.15;99845.89;2255296;78;50750;-72
2022/12/08 13:02:01;;;;;;;;;;;;;;;18.43;57.07;99850.64;2255001;78;51491;-71
2022/12/08 13:05:04;;;;;;;;;;;;;;;18.48;56.96;99851.69;2276430;78;50322;-71
2022/12/08 13:08:06;;;;;;;;;;;;;;;18.52;56.89;99852.09;2288580;77;50940;-72
2022/12/08 13:11:09;;;;;;;;;;;;;;;18.58;56.79;99845.13;2235221;79;50798;-71
2022/12/08 13:14:12;;;;;;;;;;;;;;;18.57;56.69;99850.16;2302630;77;50247;-71
2022/12/08 13:17:15;;;;;;;;;;;;;;;18.53;56.75;99840.89;2302674;76;50351;-72
2022/12/08 13:20:21;;;;;;;;;;;;;;;18.49;56.83;99841.27;2273698;76;49661;-71
2022/12/08 13:23:26;;;;;;;;;;;;;;;18.45;56.95;99835.20;2306532;77;50288;-70
2022/12/08 13:26:28;;;;;;;;;;;;;;;18.41;57.28;99840.64;2308818;77;51653;-72
2022/12/08 13:29:30;;;;;;;;;;;;;;;18.37;57.70;99840.72;2249907;78;51403;-72
2022/12/08 13:32:50;;;;;;;;;;;;;;;18.31;58.00;99841.02;2256113;77;52715;-71
2022/12/08 13:35:56;;;;;;;;;;;;;;;18.26;58.54;99841.64;2253247;77;51552;-71
2022/12/08 13:38:58;;;;;;;;;;;;;;;18.29;58.60;99844.43;2207818;79;51489;-71
2022/12/08 13:42:06;;;;;;;;;;;;;;;18.38;58.59;99838.38;2300556;77;50300;-71
2022/12/08 13:45:13;;;;;;;;;;;;;;;18.47;58.48;99842.50;2270686;78;51269;-71
2022/12/08 13:48:23;;;;;;;;;;;;;;;18.55;58.35;99843.68;2294061;77;51510;-71
2022/12/08 13:51:30;;;;;;;;;;;;;;;18.56;58.26;99851.20;2247646;78;50792;-70
2022/12/08 13:54:34;;;;;;;;;;;;;;;18.53;58.22;99842.23;2232397;79;22326;-71
2022/12/08 13:57:36;;;;;;;;;;;;;;;18.48;58.30;99850.34;2232314;79;51643;-71
2022/12/08 14:00:38;;;;;;;;;;;;;;;18.43;58.44;99849.31;2241907;79;50149;-71
2022/12/08 14:03:47;;;;;;;;;;;;;;;18.36;58.58;99842.58;2231875;79;51731;-71
2022/12/08 14:06:49;;;;;;;;;;;;;;;18.32;58.76;99845.36;2232227;79;51549;-72
2022/12/08 14:09:51;;;;;;;;;;;;;;;18.26;58.95;99852.84;2241731;79;51764;-71
2022/12/08 14:12:56;;;;;;;;;;;;;;;18.22;59.19;99844.91;2232291;79;50267;-71
2022/12/08 14:15:58;;;;;;;;;;;;;;;18.22;59.36;99852.43;2232171;79;50433;-73
2022/12/08 14:19:13;;;;;;;;;;;;;;;18.28;59.31;99853.47;2232312;79;50311;-71
2022/12/08 14:22:17;;;;;;;;;;;;;;;18.33;59.22;99853.70;2208064;79;52554;-72
2022/12/08 14:25:18;;;;;;;;;;;;;;;18.39;59.06;99861.44;2241937;79;50273;-71
2022/12/08 14:28:20;;;;;;;;;;;;;;;18.43;59.08;99854.14;2275020;77;50267;-72
2022/12/08 14:31:22;;;;;;;;;;;;;;;18.46;58.92;99860.43;2307829;77;51533;-71
2022/12/08 14:34:24;;;;;;;;;;;;;;;18.51;58.85;99869.21;2307194;76;50189;-71
2022/12/08 14:37:26;;;;;;;;;;;;;;;18.57;58.73;99872.94;2308188;77;51417;-72
2022/12/08 14:40:38;;;;;;;;;;;;;;;18.64;58.58;99868.42;2308157;76;51552;-72
2022/12/08 14:43:39;;;;;;;;;;;;;;;18.63;58.40;99864.10;2307925;76;50328;-71
2022/12/08 14:46:41;;;;;;;;;;;;;;;18.61;58.49;99869.66;2282041;77;52412;-72
2022/12/08 14:49:43;;;;;;;;;;;;;;;18.55;58.64;99870.96;2307793;76;50317;-71
2022/12/08 14:52:45;;;;;;;;;;;;;;;18.46;58.82;99873.83;2308110;76;51541;-72
2022/12/08 14:55:47;;;;;;;;;;;;;;;18.42;58.93;99874.42;2307845;77;51241;-71
2022/12/08 14:58:49;;;;;;;;;;;;;;;18.37;59.13;99876.88;2307850;76;51040;-71
2022/12/08 15:01:51;;;;;;;;;;;;;;;18.32;59.33;99878.02;2307871;76;51455;-70
2022/12/08 15:04:57;;;;;;;;;;;;;;;18.30;59.57;99888.09;2307841;77;51599;-71
2022/12/08 15:08:02;;;;;;;;;;;;;;;18.36;59.57;99896.66;2307506;76;50732;-71
2022/12/08 15:11:13;;;;;;;;;;;;;;;18.41;59.33;99891.02;2309793;76;50127;-70
2022/12/08 15:14:26;;;;;;;;;;;;;;;18.46;59.15;99880.52;2286662;75;50338;-71
2022/12/08 15:17:35;;;;;;;;;;;;;;;18.46;59.67;99887.22;2253006;78;50795;-71
2022/12/08 15:20:44;;;;;;;;;;;;;;;18.48;59.60;99889.19;2282841;78;51519;-73
2022/12/08 15:23:47;;;;;;;;;;;;;;;18.46;59.76;99890.42;2228039;78;52367;-72
2022/12/08 15:26:49;;;;;;;;;;;;;;;18.42;59.90;99887.33;2252380;77;51498;-72
2022/12/08 15:29:51;;;;;;;;;;;;;;;18.37;59.91;99889.78;2249380;79;51825;-72
2022/12/08 15:32:54;;;;;;;;;;;;;;;18.30;60.01;99888.92;2301981;76;49922;-72
2022/12/08 15:35:56;;;;;;;;;;;;;;;18.25;60.16;99890.03;2299425;76;51038;-72
2022/12/08 15:38:58;;;;;;;;;;;;;;;18.20;60.40;99889.80;2302524;77;50401;-72
2022/12/08 15:41:59;;;;;;;;;;;;;;;18.18;60.48;99894.52;2302866;77;51430;-72
2022/12/08 15:45:01;;;;;;;;;;;;;;;18.22;60.54;99902.48;2301913;76;50615;-72
2022/12/08 15:48:02;;;;;;;;;;;;;;;18.27;60.33;99910.23;2264483;77;51447;-72
2022/12/08 15:51:04;;;;;;;;;;;;;;;18.32;60.25;99912.84;2300209;77;51579;-73
2022/12/08 15:54:06;;;;;;;;;;;;;;;18.37;60.14;99909.02;2304674;75;51708;-74